createdAt,value
2019-05-28T02:56:56.684Z,3.27
2019-05-28T03:02:33.077Z,3.27
2019-05-28T03:05:10.667Z,2.75
2019-05-28T03:35:00.785Z,2.10
2019-05-28T03:37:44.875Z,3.12
2019-05-28T03:40:27.105Z,2.25
2019-05-28T03:43:14.011Z,2.50
2019-05-28T03:45:55.275Z,2.35
2019-05-28T03:48:36.393Z,2.47
2019-05-28T03:51:12.460Z,2.50
2019-05-28T03:54:04.147Z,2.77
2019-05-28T04:02:23.256Z,2.67
2019-05-28T04:04:46.697Z,3.12
2019-05-28T04:07:26.504Z,3.22
2019-05-28T04:10:06.203Z,2.85
2019-05-28T04:12:55.513Z,3.10
2019-05-28T04:15:28.371Z,2.83
2019-05-28T04:17:59.209Z,2.80
2019-05-28T04:23:24.814Z,2.70
2019-05-28T04:25:59.536Z,3.35
2019-05-28T04:28:30.549Z,3.60
2019-05-28T04:31:05.675Z,3.35
2019-05-28T04:33:37.161Z,3.22
2019-05-28T04:36:08.260Z,3.22
2019-05-28T04:41:14.926Z,2.40
2019-05-28T04:43:47.535Z,2.37
2019-05-28T04:46:19.233Z,2.67
2019-05-28T04:48:48.875Z,2.58
2019-05-28T04:51:21.643Z,3.12
2019-05-28T04:53:53.138Z,2.15
2019-05-28T04:56:24.332Z,2.35
2019-05-28T04:58:54.173Z,2.85
2019-05-28T05:01:26.010Z,2.27
2019-05-28T05:03:55.974Z,3.20
2019-05-28T05:06:25.674Z,2.23
2019-05-28T05:08:57.474Z,2.10
2019-05-28T05:20:02.261Z,1.82
2019-05-28T05:22:45.827Z,1.90
2019-05-28T05:25:18.832Z,1.80
2019-05-28T05:28:08.095Z,2.08
2019-05-28T05:30:57.833Z,1.62
2019-05-28T05:36:19.533Z,1.62
2019-05-28T05:38:51.654Z,1.50
2019-05-28T05:41:33.838Z,1.47
2019-05-28T05:44:05.168Z,1.50
2019-05-28T05:46:34.762Z,1.55
2019-05-28T05:49:07.394Z,1.77
2019-05-28T05:51:48.483Z,1.35
2019-05-28T05:54:20.556Z,1.40
2019-05-28T05:57:01.951Z,1.57
2019-05-28T05:59:39.428Z,1.52
2019-05-28T07:18:32.527Z,1.65
2019-05-28T07:21:07.320Z,1.35
2019-05-28T07:23:50.868Z,1.55
2019-05-28T07:26:30.798Z,1.85
2019-05-28T07:29:25.718Z,1.60
2019-05-28T08:15:30.213Z,1.82
2019-05-28T08:17:59.961Z,1.30
2019-05-28T08:20:29.541Z,1.62
2019-05-28T08:22:59.117Z,1.80
2019-05-28T08:25:46.154Z,1.52
2019-05-28T08:28:18.495Z,1.32
2019-05-28T08:30:32.865Z,1.70
2019-05-28T08:33:02.429Z,1.42
2019-05-28T08:38:48.372Z,1.77
2019-05-28T08:41:17.929Z,2.05
2019-05-28T08:43:47.611Z,1.50
2019-05-28T08:46:17.129Z,1.70
2019-05-28T08:48:46.695Z,1.32
2019-05-28T08:51:16.197Z,1.50
2019-05-28T08:53:45.703Z,1.50
2019-05-28T08:56:15.280Z,1.17
2019-05-28T08:58:44.787Z,1.25
2019-05-28T09:01:14.389Z,1.45
2019-05-28T09:03:43.888Z,1.15
2019-05-28T09:06:13.473Z,1.10
2019-05-28T09:08:42.969Z,0.80
2019-05-28T09:11:12.874Z,1.00
2019-05-28T09:13:42.567Z,1.27
2019-05-28T09:16:12.143Z,1.10
2019-05-28T09:18:41.642Z,1.00
2019-05-28T09:21:11.265Z,0.80
2019-05-28T09:23:40.800Z,1.00
2019-05-28T09:26:10.324Z,0.88
2019-05-28T09:28:39.859Z,0.70
2019-05-28T09:31:09.420Z,1.17
2019-05-28T09:33:38.923Z,1.05
2019-05-28T09:36:09.351Z,1.05
2019-05-28T09:38:39.343Z,1.00
2019-05-28T09:41:08.851Z,0.80
2019-05-28T09:43:39.816Z,0.85
2019-05-28T09:46:09.377Z,0.80
2019-05-28T09:48:39.100Z,0.90
2019-05-28T09:51:09.211Z,0.88
2019-05-28T09:53:39.186Z,1.10
2019-05-28T09:56:08.722Z,0.80
2019-05-28T09:58:38.288Z,0.80
2019-05-28T10:01:07.946Z,0.70
2019-05-28T10:03:37.441Z,0.90
2019-05-28T10:06:16.858Z,0.80
2019-05-28T10:08:38.423Z,0.93
2019-05-28T10:11:07.939Z,0.80
2019-05-28T10:13:40.907Z,0.70
2019-05-28T10:16:08.638Z,0.78
2019-05-28T10:18:38.200Z,1.15
2019-05-28T10:21:17.619Z,0.70
2019-05-28T10:23:38.963Z,0.70
2019-05-28T10:26:08.528Z,0.80
2019-05-28T10:28:38.053Z,0.90
2019-05-28T10:31:07.625Z,2.35
2019-05-28T10:33:37.147Z,1.50
2019-05-28T10:36:06.793Z,1.10
2019-05-28T10:38:36.294Z,0.85
2019-05-28T10:41:05.815Z,0.90
2019-05-28T10:43:35.382Z,0.95
2019-05-28T10:46:05.203Z,0.90
2019-05-28T10:48:34.739Z,0.80
2019-05-28T10:51:04.303Z,0.93
2019-05-28T10:53:33.807Z,0.72
2019-05-28T10:56:03.567Z,0.75
2019-05-28T10:58:33.060Z,0.70
2019-05-28T11:01:02.637Z,0.82
2019-05-28T11:06:28.661Z,1.15
2019-05-28T11:08:58.153Z,1.42
2019-05-28T11:11:27.788Z,0.98
2019-05-28T11:13:57.392Z,0.60
2019-05-28T11:16:26.984Z,0.70
2019-05-28T11:18:56.486Z,0.98
2019-05-28T11:21:57.036Z,0.85
2019-05-28T11:24:26.659Z,0.90
2019-05-28T11:26:56.171Z,1.02
2019-05-28T11:29:26.512Z,0.78
2019-05-28T11:31:57.902Z,1.15
2019-05-28T11:34:30.115Z,0.72
2019-05-28T11:37:08.890Z,0.80
2019-05-28T11:39:43.970Z,0.75
2019-05-28T11:42:21.996Z,0.80
2019-05-28T11:44:51.554Z,1.00
2019-05-28T11:47:21.063Z,0.70
2019-05-28T11:49:50.550Z,0.50
2019-05-28T11:52:20.070Z,0.55
2019-05-28T11:54:49.598Z,1.05
2019-05-28T11:57:19.096Z,0.70
2019-05-28T11:59:48.610Z,0.80
2019-05-28T12:02:20.188Z,1.05
2019-05-28T12:04:49.734Z,0.70
2019-05-28T12:07:25.957Z,0.70
2019-05-28T12:09:59.222Z,0.90
2019-05-28T12:15:45.738Z,0.70
2019-05-28T12:18:15.444Z,0.80
2019-05-28T12:20:45.019Z,0.78
2019-05-28T12:23:14.620Z,0.80
2019-05-28T12:25:44.131Z,0.85
2019-05-28T12:28:13.633Z,0.60
2019-05-28T12:30:43.130Z,0.93
2019-05-28T12:33:12.656Z,1.17
2019-05-28T12:35:46.251Z,0.80
2019-05-28T12:38:15.921Z,0.70
2019-05-28T12:40:48.217Z,0.80
2019-05-28T12:43:20.814Z,1.10
2019-05-28T12:45:50.392Z,0.90
2019-05-28T12:48:19.965Z,0.85
2019-05-28T12:50:49.487Z,0.80
2019-05-28T12:53:19.032Z,1.00
2019-05-28T12:55:48.615Z,0.90
2019-05-28T12:58:18.639Z,0.90
2019-05-28T13:00:48.836Z,0.93
2019-05-28T13:03:18.463Z,1.00
2019-05-28T13:05:59.442Z,1.00
2019-05-28T13:11:40.570Z,1.10
2019-05-28T13:14:10.142Z,0.82
2019-05-28T13:16:39.693Z,0.98
2019-05-28T13:19:09.263Z,1.15
2019-05-28T13:21:38.840Z,1.10
2019-05-28T13:24:08.446Z,0.90
2019-05-28T13:26:37.969Z,1.20
2019-05-28T13:29:07.544Z,0.80
2019-05-28T13:31:37.234Z,0.68
2019-05-28T13:34:06.772Z,0.93
2019-05-28T13:58:51.928Z,1.40
2019-05-28T14:01:25.534Z,1.25
2019-05-28T14:07:40.099Z,1.37
2019-05-28T14:10:10.925Z,1.17
2019-05-28T14:15:10.348Z,1.20
2019-05-28T14:17:39.929Z,1.10
2019-05-28T14:20:11.533Z,0.90
2019-05-28T14:22:41.081Z,0.90
2019-05-28T14:25:12.027Z,0.82
2019-05-28T14:27:41.558Z,0.93
2019-05-28T14:33:20.024Z,0.68
2019-05-28T14:35:49.616Z,0.95
2019-05-28T14:38:19.132Z,1.00
2019-05-28T14:40:48.771Z,0.98
2019-05-28T14:43:18.388Z,0.85
2019-05-28T14:45:47.921Z,1.10
2019-05-28T14:48:17.476Z,1.12
2019-05-28T14:50:46.997Z,0.98
2019-05-28T14:53:16.514Z,1.17
2019-05-28T14:55:46.056Z,1.10
2019-05-28T14:58:15.641Z,1.10
2019-05-28T15:00:45.209Z,1.07
2019-05-28T15:03:14.724Z,1.00
2019-05-28T15:05:44.231Z,0.90
2019-05-28T15:08:13.794Z,1.20
2019-05-28T15:10:43.412Z,1.20
2019-05-28T15:13:13.000Z,1.25
2019-05-28T15:15:42.578Z,1.00
2019-05-28T15:18:12.135Z,1.30
2019-05-28T15:20:41.642Z,1.25
2019-05-28T15:23:11.232Z,1.30
2019-05-28T15:25:40.749Z,1.27
2019-05-28T15:28:10.292Z,1.22
2019-05-28T15:30:42.542Z,1.10
2019-05-28T15:33:15.377Z,1.27
2019-05-28T15:35:44.936Z,1.42
2019-05-28T15:38:19.443Z,5.25
2019-05-28T15:40:49.068Z,1.20
2019-05-28T15:43:18.653Z,1.85
2019-05-28T15:45:48.233Z,1.30
2019-05-28T15:48:17.940Z,1.40
2019-05-28T15:50:47.453Z,1.32
2019-05-28T15:53:17.655Z,1.37
2019-05-28T15:55:47.296Z,1.27
2019-05-28T15:58:16.865Z,1.10
2019-05-28T16:00:46.498Z,1.32
2019-05-28T16:03:16.141Z,1.50
2019-05-28T16:05:45.690Z,1.40
2019-05-28T16:08:15.291Z,1.82
2019-05-28T16:21:48.101Z,2.52
2019-05-28T16:24:20.409Z,2.60
2019-05-28T16:26:54.584Z,3.05
2019-05-28T16:32:45.622Z,2.95
2019-05-28T16:38:14.821Z,2.30
2019-05-28T16:41:40.043Z,3.08
2019-05-28T17:27:22.331Z,2.50
2019-05-28T17:30:16.683Z,2.42
2019-05-28T17:36:06.910Z,1.70
2019-05-28T17:38:57.321Z,1.90
2019-05-28T17:50:52.547Z,2.70
2019-05-28T18:09:30.239Z,3.12
2019-05-28T18:51:29.183Z,4.15
2019-05-28T18:55:13.079Z,3.77
2019-05-28T19:20:41.181Z,4.10
2019-05-28T19:26:18.633Z,3.67
2019-05-28T19:31:53.697Z,3.87
